sensor_id;sensor_type;location;lat;lon;timestamp;temperature;humidity
72865;DHT22;61000;48.120;11.548;2023-06-22T00:09:20;21.50;99.70
72865;DHT22;61000;48.120;11.548;2023-06-22T00:11:47;21.50;99.70
72865;DHT22;61000;48.120;11.548;2023-06-22T00:14:14;21.50;99.70
72865;DHT22;61000;48.120;11.548;2023-06-22T00:16:41;21.50;99.70
72865;DHT22;61000;48.120;11.548;2023-06-22T00:19:08;21.50;99.70
72865;DHT22;61000;48.120;11.548;2023-06-22T00:21:37;21.50;99.70
72865;DHT22;61000;48.120;11.548;2023-06-22T00:24:04;21.40;99.80
72865;DHT22;61000;48.120;11.548;2023-06-22T00:26:34;21.30;99.90
72865;DHT22;61000;48.120;11.548;2023-06-22T00:29:00;21.30;99.90
72865;DHT22;61000;48.120;11.548;2023-06-22T00:31:30;21.30;99.90
72865;DHT22;61000;48.120;11.548;2023-06-22T00:33:56;21.20;99.90
72865;DHT22;61000;48.120;11.548;2023-06-22T00:36:23;21.20;99.90
72865;DHT22;61000;48.120;11.548;2023-06-22T00:38:50;21.10;99.90
72865;DHT22;61000;48.120;11.548;2023-06-22T00:41:17;21.10;99.90
72865;DHT22;61000;48.120;11.548;2023-06-22T00:43:45;21.10;99.90
72865;DHT22;61000;48.120;11.548;2023-06-22T00:46:12;21.00;99.90
72865;DHT22;61000;48.120;11.548;2023-06-22T00:48:40;21.00;99.90
72865;DHT22;61000;48.120;11.548;2023-06-22T00:51:07;21.00;99.90
72865;DHT22;61000;48.120;11.548;2023-06-22T00:53:34;20.90;99.90
72865;DHT22;61000;48.120;11.548;2023-06-22T00:56:03;20.90;99.90
72865;DHT22;61000;48.120;11.548;2023-06-22T00:58:31;20.90;99.90
72865;DHT22;61000;48.120;11.548;2023-06-22T01:00:59;20.80;99.90
72865;DHT22;61000;48.120;11.548;2023-06-22T01:03:27;21.00;99.90
72865;DHT22;61000;48.120;11.548;2023-06-22T01:06:01;21.00;99.90
72865;DHT22;61000;48.120;11.548;2023-06-22T01:08:33;20.90;99.90
72865;DHT22;61000;48.120;11.548;2023-06-22T01:11:08;20.80;99.90
72865;DHT22;61000;48.120;11.548;2023-06-22T01:13:44;20.90;99.90
72865;DHT22;61000;48.120;11.548;2023-06-22T01:16:17;20.90;99.90
72865;DHT22;61000;48.120;11.548;2023-06-22T01:18:48;20.90;99.90
72865;DHT22;61000;48.120;11.548;2023-06-22T01:21:19;20.80;99.90
72865;DHT22;61000;48.120;11.548;2023-06-22T01:24:15;20.80;99.90
72865;DHT22;61000;48.120;11.548;2023-06-22T01:26:54;20.70;99.90
72865;DHT22;61000;48.120;11.548;2023-06-22T01:29:25;20.70;99.90
72865;DHT22;61000;48.120;11.548;2023-06-22T01:31:56;20.60;99.90
72865;DHT22;61000;48.120;11.548;2023-06-22T01:34:24;20.60;99.90
72865;DHT22;61000;48.120;11.548;2023-06-22T01:36:51;20.60;99.90
72865;DHT22;61000;48.120;11.548;2023-06-22T01:39:20;20.40;99.90
72865;DHT22;61000;48.120;11.548;2023-06-22T01:41:48;20.50;99.90
72865;DHT22;61000;48.120;11.548;2023-06-22T01:44:15;20.40;99.90
72865;DHT22;61000;48.120;11.548;2023-06-22T01:46:44;20.30;99.90
72865;DHT22;61000;48.120;11.548;2023-06-22T01:49:13;20.40;99.90
72865;DHT22;61000;48.120;11.548;2023-06-22T01:51:40;20.30;99.90
72865;DHT22;61000;48.120;11.548;2023-06-22T01:54:07;20.30;99.90
72865;DHT22;61000;48.120;11.548;2023-06-22T01:56:34;20.20;99.90
72865;DHT22;61000;48.120;11.548;2023-06-22T01:59:05;20.20;99.90
72865;DHT22;61000;48.120;11.548;2023-06-22T02:01:39;20.20;99.90
72865;DHT22;61000;48.120;11.548;2023-06-22T02:04:13;20.20;99.90
72865;DHT22;61000;48.120;11.548;2023-06-22T02:06:44;20.20;99.90
72865;DHT22;61000;48.120;11.548;2023-06-22T02:09:16;20.10;99.90
72865;DHT22;61000;48.120;11.548;2023-06-22T02:11:45;20.10;99.90
72865;DHT22;61000;48.120;11.548;2023-06-22T02:14:14;20.10;99.90
72865;DHT22;61000;48.120;11.548;2023-06-22T02:16:42;20.10;99.90
72865;DHT22;61000;48.120;11.548;2023-06-22T02:19:10;20.10;99.90
72865;DHT22;61000;48.120;11.548;2023-06-22T02:21:37;20.10;99.90
72865;DHT22;61000;48.120;11.548;2023-06-22T02:24:04;20.10;99.90
72865;DHT22;61000;48.120;11.548;2023-06-22T02:26:32;20.10;99.90
72865;DHT22;61000;48.120;11.548;2023-06-22T02:29:01;20.20;99.90
72865;DHT22;61000;48.120;11.548;2023-06-22T02:31:28;20.20;99.90
72865;DHT22;61000;48.120;11.548;2023-06-22T02:33:56;20.00;99.90
72865;DHT22;61000;48.120;11.548;2023-06-22T02:36:25;20.20;99.90
72865;DHT22;61000;48.120;11.548;2023-06-22T02:38:53;20.20;99.90
72865;DHT22;61000;48.120;11.548;2023-06-22T02:41:22;20.30;99.90
72865;DHT22;61000;48.120;11.548;2023-06-22T02:43:48;20.20;99.90
72865;DHT22;61000;48.120;11.548;2023-06-22T02:46:19;20.20;99.90
72865;DHT22;61000;48.120;11.548;2023-06-22T02:48:46;20.20;99.90
72865;DHT22;61000;48.120;11.548;2023-06-22T02:51:13;20.20;99.90
72865;DHT22;61000;48.120;11.548;2023-06-22T02:53:42;20.20;99.90
72865;DHT22;61000;48.120;11.548;2023-06-22T02:56:11;20.20;99.90
72865;DHT22;61000;48.120;11.548;2023-06-22T02:58:38;20.10;99.90
72865;DHT22;61000;48.120;11.548;2023-06-22T03:01:09;20.10;99.90
72865;DHT22;61000;48.120;11.548;2023-06-22T03:03:39;20.00;99.90
72865;DHT22;61000;48.120;11.548;2023-06-22T03:06:06;20.00;99.90
72865;DHT22;61000;48.120;11.548;2023-06-22T03:08:33;20.00;99.90
72865;DHT22;61000;48.120;11.548;2023-06-22T03:11:02;20.00;99.90
72865;DHT22;61000;48.120;11.548;2023-06-22T03:13:29;20.00;99.90
72865;DHT22;61000;48.120;11.548;2023-06-22T03:15:56;20.00;99.90
72865;DHT22;61000;48.120;11.548;2023-06-22T03:18:23;20.00;99.90
72865;DHT22;61000;48.120;11.548;2023-06-22T03:20:49;19.90;99.90
72865;DHT22;61000;48.120;11.548;2023-06-22T03:23:16;19.90;99.90
72865;DHT22;61000;48.120;11.548;2023-06-22T03:25:43;19.90;99.90
72865;DHT22;61000;48.120;11.548;2023-06-22T03:28:12;19.80;99.90
72865;DHT22;61000;48.120;11.548;2023-06-22T03:30:40;19.80;99.90
72865;DHT22;61000;48.120;11.548;2023-06-22T03:33:07;19.80;99.90
72865;DHT22;61000;48.120;11.548;2023-06-22T03:35:35;19.80;99.90
72865;DHT22;61000;48.120;11.548;2023-06-22T03:38:02;19.80;99.90
72865;DHT22;61000;48.120;11.548;2023-06-22T03:40:30;19.80;99.90
72865;DHT22;61000;48.120;11.548;2023-06-22T03:42:58;19.70;99.90
72865;DHT22;61000;48.120;11.548;2023-06-22T03:45:26;19.70;99.90
72865;DHT22;61000;48.120;11.548;2023-06-22T03:47:53;19.80;99.90
72865;DHT22;61000;48.120;11.548;2023-06-22T03:50:20;19.80;99.90
72865;DHT22;61000;48.120;11.548;2023-06-22T03:52:46;19.80;99.90
72865;DHT22;61000;48.120;11.548;2023-06-22T03:55:14;19.80;99.90
72865;DHT22;61000;48.120;11.548;2023-06-22T03:57:40;19.90;99.90
72865;DHT22;61000;48.120;11.548;2023-06-22T04:00:08;19.90;99.90
72865;DHT22;61000;48.120;11.548;2023-06-22T04:02:42;19.90;99.90
72865;DHT22;61000;48.120;11.548;2023-06-22T04:05:09;19.90;99.90
72865;DHT22;61000;48.120;11.548;2023-06-22T04:07:36;19.90;99.90
72865;DHT22;61000;48.120;11.548;2023-06-22T04:10:03;19.90;99.90
72865;DHT22;61000;48.120;11.548;2023-06-22T04:12:30;19.90;99.90
72865;DHT22;61000;48.120;11.548;2023-06-22T04:14:57;19.90;99.90
72865;DHT22;61000;48.120;11.548;2023-06-22T04:17:24;19.90;99.90
72865;DHT22;61000;48.120;11.548;2023-06-22T04:19:52;20.00;99.90
72865;DHT22;61000;48.120;11.548;2023-06-22T04:22:19;20.00;99.90
72865;DHT22;61000;48.120;11.548;2023-06-22T04:24:46;20.10;99.90
72865;DHT22;61000;48.120;11.548;2023-06-22T04:27:13;20.10;99.90
72865;DHT22;61000;48.120;11.548;2023-06-22T04:29:40;20.10;99.90
72865;DHT22;61000;48.120;11.548;2023-06-22T04:32:14;20.10;99.90
72865;DHT22;61000;48.120;11.548;2023-06-22T04:34:59;20.20;99.90
72865;DHT22;61000;48.120;11.548;2023-06-22T04:37:34;20.30;99.90
72865;DHT22;61000;48.120;11.548;2023-06-22T04:40:32;20.40;99.90
72865;DHT22;61000;48.120;11.548;2023-06-22T04:42:59;20.90;99.90
72865;DHT22;61000;48.120;11.548;2023-06-22T04:45:31;20.50;99.90
72865;DHT22;61000;48.120;11.548;2023-06-22T04:47:58;20.60;99.90
72865;DHT22;61000;48.120;11.548;2023-06-22T04:50:26;20.60;99.90
72865;DHT22;61000;48.120;11.548;2023-06-22T04:52:53;20.60;99.90
72865;DHT22;61000;48.120;11.548;2023-06-22T04:55:44;20.60;99.90
72865;DHT22;61000;48.120;11.548;2023-06-22T04:58:11;20.70;99.90
72865;DHT22;61000;48.120;11.548;2023-06-22T05:00:57;20.70;99.90
72865;DHT22;61000;48.120;11.548;2023-06-22T05:03:46;20.60;99.90
72865;DHT22;61000;48.120;11.548;2023-06-22T05:06:15;20.40;99.90
72865;DHT22;61000;48.120;11.548;2023-06-22T05:09:05;20.60;99.90
72865;DHT22;61000;48.120;11.548;2023-06-22T05:12:18;20.70;99.90
72865;DHT22;61000;48.120;11.548;2023-06-22T05:14:45;20.70;99.90
72865;DHT22;61000;48.120;11.548;2023-06-22T05:17:12;20.60;99.90
72865;DHT22;61000;48.120;11.548;2023-06-22T05:19:41;20.60;99.90
72865;DHT22;61000;48.120;11.548;2023-06-22T05:22:15;20.70;99.90
72865;DHT22;61000;48.120;11.548;2023-06-22T05:24:42;20.80;99.90
72865;DHT22;61000;48.120;11.548;2023-06-22T05:27:09;20.80;99.90
72865;DHT22;61000;48.120;11.548;2023-06-22T05:29:36;20.70;99.90
72865;DHT22;61000;48.120;11.548;2023-06-22T05:32:04;20.80;99.90
72865;DHT22;61000;48.120;11.548;2023-06-22T05:34:30;20.90;99.90
72865;DHT22;61000;48.120;11.548;2023-06-22T05:36:58;21.00;99.90
72865;DHT22;61000;48.120;11.548;2023-06-22T05:39:26;21.10;99.90
72865;DHT22;61000;48.120;11.548;2023-06-22T05:41:53;21.20;99.90
72865;DHT22;61000;48.120;11.548;2023-06-22T05:44:20;21.30;99.90
72865;DHT22;61000;48.120;11.548;2023-06-22T05:46:47;21.40;99.90
72865;DHT22;61000;48.120;11.548;2023-06-22T05:49:14;21.50;99.90
72865;DHT22;61000;48.120;11.548;2023-06-22T05:51:42;21.50;99.90
72865;DHT22;61000;48.120;11.548;2023-06-22T05:54:08;21.50;99.90
72865;DHT22;61000;48.120;11.548;2023-06-22T05:56:37;21.50;99.90
72865;DHT22;61000;48.120;11.548;2023-06-22T05:59:04;21.50;99.90
72865;DHT22;61000;48.120;11.548;2023-06-22T06:01:31;21.50;99.90
72865;DHT22;61000;48.120;11.548;2023-06-22T06:04:01;21.50;99.90
72865;DHT22;61000;48.120;11.548;2023-06-22T06:06:29;21.70;99.90
72865;DHT22;61000;48.120;11.548;2023-06-22T06:08:56;21.70;99.90
72865;DHT22;61000;48.120;11.548;2023-06-22T06:11:24;21.80;99.90
72865;DHT22;61000;48.120;11.548;2023-06-22T06:13:52;21.80;99.90
72865;DHT22;61000;48.120;11.548;2023-06-22T06:16:19;21.90;99.90
72865;DHT22;61000;48.120;11.548;2023-06-22T06:18:46;21.90;99.90
72865;DHT22;61000;48.120;11.548;2023-06-22T06:21:14;22.00;99.90
72865;DHT22;61000;48.120;11.548;2023-06-22T06:23:40;22.10;99.90
72865;DHT22;61000;48.120;11.548;2023-06-22T06:26:07;22.10;99.90
72865;DHT22;61000;48.120;11.548;2023-06-22T06:28:35;22.10;99.90
72865;DHT22;61000;48.120;11.548;2023-06-22T06:31:03;22.10;99.90
72865;DHT22;61000;48.120;11.548;2023-06-22T06:33:32;22.10;99.90
72865;DHT22;61000;48.120;11.548;2023-06-22T06:35:59;22.20;99.90
72865;DHT22;61000;48.120;11.548;2023-06-22T06:38:29;22.40;99.90
72865;DHT22;61000;48.120;11.548;2023-06-22T06:40:55;22.40;99.90
72865;DHT22;61000;48.120;11.548;2023-06-22T06:43:22;22.60;99.90
72865;DHT22;61000;48.120;11.548;2023-06-22T06:45:50;22.80;99.90
72865;DHT22;61000;48.120;11.548;2023-06-22T06:48:18;22.80;99.90
72865;DHT22;61000;48.120;11.548;2023-06-22T06:50:45;22.80;99.90
72865;DHT22;61000;48.120;11.548;2023-06-22T06:53:12;22.90;99.90
72865;DHT22;61000;48.120;11.548;2023-06-22T06:55:38;23.00;99.90
72865;DHT22;61000;48.120;11.548;2023-06-22T06:58:06;23.20;99.70
72865;DHT22;61000;48.120;11.548;2023-06-22T07:00:35;23.30;99.30
72865;DHT22;61000;48.120;11.548;2023-06-22T07:03:02;23.50;99.10
72865;DHT22;61000;48.120;11.548;2023-06-22T07:05:30;23.60;99.00
72865;DHT22;61000;48.120;11.548;2023-06-22T07:07:57;23.70;98.40
72865;DHT22;61000;48.120;11.548;2023-06-22T07:10:25;23.60;98.30
72865;DHT22;61000;48.120;11.548;2023-06-22T07:12:51;23.60;98.40
72865;DHT22;61000;48.120;11.548;2023-06-22T07:15:18;23.70;98.40
72865;DHT22;61000;48.120;11.548;2023-06-22T07:17:45;23.90;98.20
72865;DHT22;61000;48.120;11.548;2023-06-22T07:20:12;24.00;97.60
72865;DHT22;61000;48.120;11.548;2023-06-22T07:22:42;24.10;97.40
72865;DHT22;61000;48.120;11.548;2023-06-22T07:25:10;24.30;97.60
72865;DHT22;61000;48.120;11.548;2023-06-22T07:27:42;24.30;97.40
72865;DHT22;61000;48.120;11.548;2023-06-22T07:30:11;24.30;96.90
72865;DHT22;61000;48.120;11.548;2023-06-22T07:32:38;24.50;97.10
72865;DHT22;61000;48.120;11.548;2023-06-22T07:35:06;24.70;98.40
72865;DHT22;61000;48.120;11.548;2023-06-22T07:37:33;24.80;99.00
72865;DHT22;61000;48.120;11.548;2023-06-22T07:40:02;24.90;98.60
72865;DHT22;61000;48.120;11.548;2023-06-22T07:42:32;25.10;98.10
72865;DHT22;61000;48.120;11.548;2023-06-22T07:44:59;25.10;97.80
72865;DHT22;61000;48.120;11.548;2023-06-22T07:47:26;25.20;97.90
72865;DHT22;61000;48.120;11.548;2023-06-22T07:49:53;25.10;97.90
72865;DHT22;61000;48.120;11.548;2023-06-22T07:52:23;25.30;97.80
72865;DHT22;61000;48.120;11.548;2023-06-22T07:54:51;25.60;97.90
72865;DHT22;61000;48.120;11.548;2023-06-22T07:57:19;25.60;98.40
72865;DHT22;61000;48.120;11.548;2023-06-22T07:59:46;25.60;98.20
72865;DHT22;61000;48.120;11.548;2023-06-22T08:02:13;25.70;98.30
72865;DHT22;61000;48.120;11.548;2023-06-22T08:04:41;25.70;98.50
72865;DHT22;61000;48.120;11.548;2023-06-22T08:07:08;25.80;98.40
72865;DHT22;61000;48.120;11.548;2023-06-22T08:09:36;25.80;98.20
72865;DHT22;61000;48.120;11.548;2023-06-22T08:12:03;25.90;97.70
72865;DHT22;61000;48.120;11.548;2023-06-22T08:14:31;26.10;97.80
72865;DHT22;61000;48.120;11.548;2023-06-22T08:17:01;26.30;99.90
72865;DHT22;61000;48.120;11.548;2023-06-22T08:19:28;26.40;99.80
72865;DHT22;61000;48.120;11.548;2023-06-22T08:21:56;26.40;99.50
72865;DHT22;61000;48.120;11.548;2023-06-22T08:24:23;26.70;99.70
72865;DHT22;61000;48.120;11.548;2023-06-22T08:26:51;26.90;99.10
72865;DHT22;61000;48.120;11.548;2023-06-22T08:29:18;27.10;99.20
72865;DHT22;61000;48.120;11.548;2023-06-22T08:31:46;27.30;99.00
72865;DHT22;61000;48.120;11.548;2023-06-22T08:34:13;27.50;98.70
72865;DHT22;61000;48.120;11.548;2023-06-22T08:36:40;27.50;98.20
72865;DHT22;61000;48.120;11.548;2023-06-22T08:39:10;27.60;98.10
72865;DHT22;61000;48.120;11.548;2023-06-22T08:41:37;27.70;98.10
72865;DHT22;61000;48.120;11.548;2023-06-22T08:44:04;27.40;98.10
72865;DHT22;61000;48.120;11.548;2023-06-22T08:46:31;27.90;97.90
72865;DHT22;61000;48.120;11.548;2023-06-22T08:49:00;28.30;98.00
72865;DHT22;61000;48.120;11.548;2023-06-22T08:53:54;28.30;90.80
72865;DHT22;61000;48.120;11.548;2023-06-22T08:56:21;28.60;90.60
72865;DHT22;61000;48.120;11.548;2023-06-22T08:58:48;28.90;90.10
72865;DHT22;61000;48.120;11.548;2023-06-22T09:01:15;29.00;88.30
72865;DHT22;61000;48.120;11.548;2023-06-22T09:06:11;30.00;84.20
72865;DHT22;61000;48.120;11.548;2023-06-22T09:08:40;29.80;84.90
72865;DHT22;61000;48.120;11.548;2023-06-22T09:11:06;30.10;84.80
72865;DHT22;61000;48.120;11.548;2023-06-22T09:13:33;30.50;83.10
72865;DHT22;61000;48.120;11.548;2023-06-22T09:16:00;31.20;81.40
72865;DHT22;61000;48.120;11.548;2023-06-22T09:18:28;31.50;78.80
72865;DHT22;61000;48.120;11.548;2023-06-22T09:20:55;31.30;78.40
72865;DHT22;61000;48.120;11.548;2023-06-22T09:23:23;31.00;78.70
72865;DHT22;61000;48.120;11.548;2023-06-22T09:25:50;31.30;78.60
72865;DHT22;61000;48.120;11.548;2023-06-22T09:28:17;32.20;76.40
72865;DHT22;61000;48.120;11.548;2023-06-22T09:30:44;31.80;76.50
72865;DHT22;61000;48.120;11.548;2023-06-22T09:33:11;31.90;75.90
72865;DHT22;61000;48.120;11.548;2023-06-22T09:50:26;33.50;70.00
72865;DHT22;61000;48.120;11.548;2023-06-22T09:52:53;34.00;70.00
72865;DHT22;61000;48.120;11.548;2023-06-22T09:55:21;34.40;68.80
72865;DHT22;61000;48.120;11.548;2023-06-22T09:57:49;34.30;66.90
72865;DHT22;61000;48.120;11.548;2023-06-22T10:00:17;34.10;66.80
72865;DHT22;61000;48.120;11.548;2023-06-22T10:02:46;34.60;66.50
72865;DHT22;61000;48.120;11.548;2023-06-22T10:05:12;34.40;65.20
72865;DHT22;61000;48.120;11.548;2023-06-22T10:07:39;35.00;66.00
72865;DHT22;61000;48.120;11.548;2023-06-22T10:10:09;35.20;64.50
72865;DHT22;61000;48.120;11.548;2023-06-22T10:12:36;35.00;63.20
72865;DHT22;61000;48.120;11.548;2023-06-22T10:15:05;34.90;64.40
72865;DHT22;61000;48.120;11.548;2023-06-22T10:17:32;35.10;64.20
72865;DHT22;61000;48.120;11.548;2023-06-22T10:20:00;34.70;62.90
72865;DHT22;61000;48.120;11.548;2023-06-22T10:22:31;34.90;63.80
72865;DHT22;61000;48.120;11.548;2023-06-22T10:24:58;34.30;63.70
72865;DHT22;61000;48.120;11.548;2023-06-22T10:27:24;34.00;65.00
72865;DHT22;61000;48.120;11.548;2023-06-22T10:29:51;34.10;64.10
72865;DHT22;61000;48.120;11.548;2023-06-22T10:32:20;33.90;65.10
72865;DHT22;61000;48.120;11.548;2023-06-22T10:34:47;34.10;64.50
72865;DHT22;61000;48.120;11.548;2023-06-22T10:37:14;34.30;63.60
72865;DHT22;61000;48.120;11.548;2023-06-22T10:39:41;34.30;63.30
72865;DHT22;61000;48.120;11.548;2023-06-22T10:42:08;34.80;62.90
72865;DHT22;61000;48.120;11.548;2023-06-22T10:44:35;34.70;61.60
72865;DHT22;61000;48.120;11.548;2023-06-22T10:47:01;34.50;62.70
72865;DHT22;61000;48.120;11.548;2023-06-22T10:49:30;34.50;63.50
72865;DHT22;61000;48.120;11.548;2023-06-22T10:51:56;34.50;62.80
72865;DHT22;61000;48.120;11.548;2023-06-22T10:54:23;34.30;62.60
72865;DHT22;61000;48.120;11.548;2023-06-22T10:56:50;34.30;62.90
72865;DHT22;61000;48.120;11.548;2023-06-22T10:59:17;34.10;62.20
72865;DHT22;61000;48.120;11.548;2023-06-22T11:01:45;34.00;63.40
72865;DHT22;61000;48.120;11.548;2023-06-22T11:04:12;34.00;62.80
72865;DHT22;61000;48.120;11.548;2023-06-22T11:06:40;34.00;62.70
72865;DHT22;61000;48.120;11.548;2023-06-22T11:09:07;33.80;62.40
72865;DHT22;61000;48.120;11.548;2023-06-22T11:11:34;33.70;63.10
72865;DHT22;61000;48.120;11.548;2023-06-22T11:14:01;33.50;62.30
72865;DHT22;61000;48.120;11.548;2023-06-22T11:16:28;33.20;63.40
72865;DHT22;61000;48.120;11.548;2023-06-22T11:18:55;33.10;64.50
72865;DHT22;61000;48.120;11.548;2023-06-22T11:21:21;33.40;65.00
72865;DHT22;61000;48.120;11.548;2023-06-22T11:23:50;33.40;64.40
72865;DHT22;61000;48.120;11.548;2023-06-22T11:26:16;33.40;64.20
72865;DHT22;61000;48.120;11.548;2023-06-22T11:28:43;33.30;64.00
72865;DHT22;61000;48.120;11.548;2023-06-22T11:31:10;33.40;64.40
72865;DHT22;61000;48.120;11.548;2023-06-22T11:33:37;33.30;63.80
72865;DHT22;61000;48.120;11.548;2023-06-22T11:36:04;33.60;63.10
72865;DHT22;61000;48.120;11.548;2023-06-22T11:38:31;33.60;62.50
72865;DHT22;61000;48.120;11.548;2023-06-22T11:41:00;33.50;62.60
72865;DHT22;61000;48.120;11.548;2023-06-22T11:43:27;33.60;63.90
72865;DHT22;61000;48.120;11.548;2023-06-22T11:45:54;33.70;64.20
72865;DHT22;61000;48.120;11.548;2023-06-22T11:48:23;33.80;64.60
72865;DHT22;61000;48.120;11.548;2023-06-22T11:50:50;33.90;65.00
72865;DHT22;61000;48.120;11.548;2023-06-22T11:53:17;33.80;65.60
72865;DHT22;61000;48.120;11.548;2023-06-22T11:55:44;33.70;65.80
72865;DHT22;61000;48.120;11.548;2023-06-22T11:58:12;33.50;66.40
72865;DHT22;61000;48.120;11.548;2023-06-22T12:00:39;33.50;66.20
72865;DHT22;61000;48.120;11.548;2023-06-22T12:03:07;33.60;67.00
72865;DHT22;61000;48.120;11.548;2023-06-22T12:05:34;33.80;67.30
72865;DHT22;61000;48.120;11.548;2023-06-22T12:08:01;33.80;66.50
72865;DHT22;61000;48.120;11.548;2023-06-22T12:10:28;33.80;66.30
72865;DHT22;61000;48.120;11.548;2023-06-22T12:12:55;33.50;66.70
72865;DHT22;61000;48.120;11.548;2023-06-22T12:15:24;33.40;67.10
72865;DHT22;61000;48.120;11.548;2023-06-22T12:17:51;33.40;67.10
72865;DHT22;61000;48.120;11.548;2023-06-22T12:20:18;33.80;67.10
72865;DHT22;61000;48.120;11.548;2023-06-22T12:22:45;33.90;65.70
72865;DHT22;61000;48.120;11.548;2023-06-22T12:25:13;34.20;65.10
72865;DHT22;61000;48.120;11.548;2023-06-22T12:27:39;34.20;64.90
72865;DHT22;61000;48.120;11.548;2023-06-22T12:30:08;34.30;64.30
72865;DHT22;61000;48.120;11.548;2023-06-22T12:32:36;34.20;64.40
72865;DHT22;61000;48.120;11.548;2023-06-22T12:35:03;34.10;64.50
72865;DHT22;61000;48.120;11.548;2023-06-22T12:37:30;34.20;64.90
72865;DHT22;61000;48.120;11.548;2023-06-22T12:39:59;34.00;64.70
72865;DHT22;61000;48.120;11.548;2023-06-22T12:42:26;34.00;64.80
72865;DHT22;61000;48.120;11.548;2023-06-22T12:44:53;33.90;64.10
72865;DHT22;61000;48.120;11.548;2023-06-22T12:47:20;33.80;65.10
72865;DHT22;61000;48.120;11.548;2023-06-22T12:49:48;33.80;65.60
72865;DHT22;61000;48.120;11.548;2023-06-22T12:52:16;33.80;65.30
72865;DHT22;61000;48.120;11.548;2023-06-22T12:54:42;33.60;65.20
72865;DHT22;61000;48.120;11.548;2023-06-22T12:57:09;33.80;65.40
72865;DHT22;61000;48.120;11.548;2023-06-22T12:59:36;33.70;65.70
72865;DHT22;61000;48.120;11.548;2023-06-22T13:02:03;33.70;65.60
72865;DHT22;61000;48.120;11.548;2023-06-22T13:04:30;33.50;66.00
72865;DHT22;61000;48.120;11.548;2023-06-22T13:06:58;33.50;66.40
72865;DHT22;61000;48.120;11.548;2023-06-22T13:09:25;33.70;66.30
72865;DHT22;61000;48.120;11.548;2023-06-22T13:11:52;33.80;66.20
72865;DHT22;61000;48.120;11.548;2023-06-22T13:14:19;33.80;65.80
72865;DHT22;61000;48.120;11.548;2023-06-22T13:16:46;33.90;65.40
72865;DHT22;61000;48.120;11.548;2023-06-22T13:19:13;34.00;65.10
72865;DHT22;61000;48.120;11.548;2023-06-22T13:21:40;34.20;64.90
72865;DHT22;61000;48.120;11.548;2023-06-22T13:24:08;34.10;64.80
72865;DHT22;61000;48.120;11.548;2023-06-22T13:26:35;34.20;65.00
72865;DHT22;61000;48.120;11.548;2023-06-22T13:29:03;34.40;64.50
72865;DHT22;61000;48.120;11.548;2023-06-22T13:31:30;34.10;64.50
72865;DHT22;61000;48.120;11.548;2023-06-22T13:33:57;34.20;64.80
72865;DHT22;61000;48.120;11.548;2023-06-22T13:36:24;34.30;64.40
72865;DHT22;61000;48.120;11.548;2023-06-22T13:38:51;34.50;64.30
72865;DHT22;61000;48.120;11.548;2023-06-22T13:41:19;34.60;64.00
72865;DHT22;61000;48.120;11.548;2023-06-22T13:43:46;34.60;63.40
72865;DHT22;61000;48.120;11.548;2023-06-22T13:46:13;34.40;63.60
72865;DHT22;61000;48.120;11.548;2023-06-22T13:48:40;34.40;64.00
72865;DHT22;61000;48.120;11.548;2023-06-22T13:51:07;34.40;64.30
72865;DHT22;61000;48.120;11.548;2023-06-22T13:53:33;34.30;64.00
72865;DHT22;61000;48.120;11.548;2023-06-22T13:56:00;34.20;63.70
72865;DHT22;61000;48.120;11.548;2023-06-22T13:58:28;34.20;64.60
72865;DHT22;61000;48.120;11.548;2023-06-22T14:00:55;34.00;65.30
72865;DHT22;61000;48.120;11.548;2023-06-22T14:03:23;34.10;65.10
72865;DHT22;61000;48.120;11.548;2023-06-22T14:05:50;34.00;65.00
72865;DHT22;61000;48.120;11.548;2023-06-22T14:08:19;34.20;64.40
72865;DHT22;61000;48.120;11.548;2023-06-22T14:10:49;34.30;63.80
72865;DHT22;61000;48.120;11.548;2023-06-22T14:13:16;34.30;63.40
72865;DHT22;61000;48.120;11.548;2023-06-22T14:15:44;34.20;64.20
72865;DHT22;61000;48.120;11.548;2023-06-22T14:18:13;34.20;63.80
72865;DHT22;61000;48.120;11.548;2023-06-22T14:20:41;34.10;63.90
72865;DHT22;61000;48.120;11.548;2023-06-22T14:23:07;34.20;63.50
72865;DHT22;61000;48.120;11.548;2023-06-22T14:25:34;34.20;63.50
72865;DHT22;61000;48.120;11.548;2023-06-22T14:28:01;34.10;63.30
72865;DHT22;61000;48.120;11.548;2023-06-22T14:30:28;34.10;63.70
72865;DHT22;61000;48.120;11.548;2023-06-22T14:32:56;34.10;63.00
72865;DHT22;61000;48.120;11.548;2023-06-22T14:35:23;34.00;62.80
72865;DHT22;61000;48.120;11.548;2023-06-22T14:37:50;34.10;63.20
72865;DHT22;61000;48.120;11.548;2023-06-22T14:40:17;34.20;62.90
72865;DHT22;61000;48.120;11.548;2023-06-22T14:42:44;34.30;63.20
72865;DHT22;61000;48.120;11.548;2023-06-22T14:45:12;34.30;62.80
72865;DHT22;61000;48.120;11.548;2023-06-22T14:47:39;34.40;62.70
72865;DHT22;61000;48.120;11.548;2023-06-22T14:50:08;34.10;62.20
72865;DHT22;61000;48.120;11.548;2023-06-22T14:52:34;34.10;62.90
72865;DHT22;61000;48.120;11.548;2023-06-22T14:55:01;34.30;63.30
72865;DHT22;61000;48.120;11.548;2023-06-22T14:57:28;34.40;62.50
72865;DHT22;61000;48.120;11.548;2023-06-22T14:59:55;34.50;61.20
72865;DHT22;61000;48.120;11.548;2023-06-22T15:02:22;34.50;60.30
72865;DHT22;61000;48.120;11.548;2023-06-22T15:04:49;34.40;60.10
72865;DHT22;61000;48.120;11.548;2023-06-22T15:07:17;34.50;60.20
72865;DHT22;61000;48.120;11.548;2023-06-22T15:09:45;34.40;59.80
72865;DHT22;61000;48.120;11.548;2023-06-22T15:12:12;34.30;60.20
72865;DHT22;61000;48.120;11.548;2023-06-22T15:14:39;34.30;60.20
72865;DHT22;61000;48.120;11.548;2023-06-22T15:17:07;34.20;60.60
72865;DHT22;61000;48.120;11.548;2023-06-22T15:19:35;34.30;60.20
72865;DHT22;61000;48.120;11.548;2023-06-22T15:22:04;34.30;59.90
72865;DHT22;61000;48.120;11.548;2023-06-22T15:24:32;34.20;59.90
72865;DHT22;61000;48.120;11.548;2023-06-22T15:26:59;34.00;60.80
72865;DHT22;61000;48.120;11.548;2023-06-22T15:29:27;33.80;61.70
72865;DHT22;61000;48.120;11.548;2023-06-22T15:31:59;33.60;62.00
72865;DHT22;61000;48.120;11.548;2023-06-22T15:34:26;33.50;60.30
72865;DHT22;61000;48.120;11.548;2023-06-22T15:36:53;33.50;59.30
72865;DHT22;61000;48.120;11.548;2023-06-22T15:39:20;33.70;59.90
72865;DHT22;61000;48.120;11.548;2023-06-22T15:41:50;33.70;59.50
72865;DHT22;61000;48.120;11.548;2023-06-22T15:44:19;33.70;59.50
72865;DHT22;61000;48.120;11.548;2023-06-22T15:46:46;33.60;59.30
72865;DHT22;61000;48.120;11.548;2023-06-22T15:49:14;33.60;59.50